sensor_id;sensor_type;location;lat;lon;timestamp;temperature;humidity
68051;DHT22;54839;51.364;7.246;2024-02-14T00:01:23;7.70;99.90
68051;DHT22;54839;51.364;7.246;2024-02-14T00:03:49;7.70;99.90
68051;DHT22;54839;51.364;7.246;2024-02-14T00:06:15;7.70;99.90
68051;DHT22;54839;51.364;7.246;2024-02-14T00:08:40;7.60;99.90
68051;DHT22;54839;51.364;7.246;2024-02-14T00:11:06;7.70;99.90
68051;DHT22;54839;51.364;7.246;2024-02-14T00:13:32;7.60;99.90
68051;DHT22;54839;51.364;7.246;2024-02-14T00:16:00;7.60;99.90
68051;DHT22;54839;51.364;7.246;2024-02-14T00:18:26;7.60;99.90
68051;DHT22;54839;51.364;7.246;2024-02-14T00:20:52;7.60;99.90
68051;DHT22;54839;51.364;7.246;2024-02-14T00:23:18;7.70;99.90
68051;DHT22;54839;51.364;7.246;2024-02-14T00:25:44;7.60;99.90
68051;DHT22;54839;51.364;7.246;2024-02-14T00:28:09;7.70;99.90
68051;DHT22;54839;51.364;7.246;2024-02-14T00:30:35;7.80;99.90
68051;DHT22;54839;51.364;7.246;2024-02-14T00:33:01;7.60;99.90
68051;DHT22;54839;51.364;7.246;2024-02-14T00:35:26;7.60;99.90
68051;DHT22;54839;51.364;7.246;2024-02-14T00:37:52;7.70;99.90
68051;DHT22;54839;51.364;7.246;2024-02-14T00:40:18;7.80;99.90
68051;DHT22;54839;51.364;7.246;2024-02-14T00:42:43;7.60;99.90
68051;DHT22;54839;51.364;7.246;2024-02-14T00:45:09;7.60;99.90
68051;DHT22;54839;51.364;7.246;2024-02-14T00:47:35;7.40;99.90
68051;DHT22;54839;51.364;7.246;2024-02-14T00:50:02;7.20;99.90
68051;DHT22;54839;51.364;7.246;2024-02-14T00:52:28;7.20;99.90
68051;DHT22;54839;51.364;7.246;2024-02-14T00:54:54;7.10;99.90
68051;DHT22;54839;51.364;7.246;2024-02-14T00:57:20;7.10;99.90
68051;DHT22;54839;51.364;7.246;2024-02-14T00:59:45;7.00;99.90
68051;DHT22;54839;51.364;7.246;2024-02-14T01:02:11;7.00;99.90
68051;DHT22;54839;51.364;7.246;2024-02-14T01:04:37;6.90;99.90
68051;DHT22;54839;51.364;7.246;2024-02-14T01:07:05;7.00;99.90
68051;DHT22;54839;51.364;7.246;2024-02-14T01:09:31;7.00;99.90
68051;DHT22;54839;51.364;7.246;2024-02-14T01:11:58;7.00;99.90
68051;DHT22;54839;51.364;7.246;2024-02-14T01:14:24;7.00;99.90
68051;DHT22;54839;51.364;7.246;2024-02-14T01:16:49;7.00;99.90
68051;DHT22;54839;51.364;7.246;2024-02-14T01:19:16;6.90;99.90
68051;DHT22;54839;51.364;7.246;2024-02-14T01:21:44;6.90;99.90
68051;DHT22;54839;51.364;7.246;2024-02-14T01:24:13;6.80;99.90
68051;DHT22;54839;51.364;7.246;2024-02-14T01:26:39;6.80;99.90
68051;DHT22;54839;51.364;7.246;2024-02-14T01:29:06;6.70;99.90
68051;DHT22;54839;51.364;7.246;2024-02-14T01:31:33;6.70;99.90
68051;DHT22;54839;51.364;7.246;2024-02-14T01:34:00;6.50;99.90
68051;DHT22;54839;51.364;7.246;2024-02-14T01:36:30;6.60;99.90
68051;DHT22;54839;51.364;7.246;2024-02-14T01:38:56;6.60;99.90
68051;DHT22;54839;51.364;7.246;2024-02-14T01:41:21;6.60;99.90
68051;DHT22;54839;51.364;7.246;2024-02-14T01:43:48;6.60;99.90
68051;DHT22;54839;51.364;7.246;2024-02-14T01:46:14;6.70;99.90
68051;DHT22;54839;51.364;7.246;2024-02-14T01:48:41;6.70;99.90
68051;DHT22;54839;51.364;7.246;2024-02-14T01:51:09;6.70;99.90
68051;DHT22;54839;51.364;7.246;2024-02-14T01:53:36;6.80;99.90
68051;DHT22;54839;51.364;7.246;2024-02-14T01:56:04;6.80;99.90
68051;DHT22;54839;51.364;7.246;2024-02-14T01:58:30;6.80;99.90
68051;DHT22;54839;51.364;7.246;2024-02-14T02:00:56;6.90;99.90
68051;DHT22;54839;51.364;7.246;2024-02-14T02:03:24;6.90;99.90
68051;DHT22;54839;51.364;7.246;2024-02-14T02:05:51;6.90;99.90
68051;DHT22;54839;51.364;7.246;2024-02-14T02:08:17;6.90;99.90
68051;DHT22;54839;51.364;7.246;2024-02-14T02:10:42;7.00;99.90
68051;DHT22;54839;51.364;7.246;2024-02-14T02:13:08;7.10;99.90
68051;DHT22;54839;51.364;7.246;2024-02-14T02:15:34;7.00;99.90
68051;DHT22;54839;51.364;7.246;2024-02-14T02:18:02;7.00;99.90
68051;DHT22;54839;51.364;7.246;2024-02-14T02:20:28;7.00;99.90
68051;DHT22;54839;51.364;7.246;2024-02-14T02:22:53;7.00;99.90
68051;DHT22;54839;51.364;7.246;2024-02-14T02:25:19;7.00;99.90
68051;DHT22;54839;51.364;7.246;2024-02-14T02:27:50;7.00;99.90
68051;DHT22;54839;51.364;7.246;2024-02-14T02:30:15;7.00;99.90
68051;DHT22;54839;51.364;7.246;2024-02-14T02:32:42;7.10;99.90
68051;DHT22;54839;51.364;7.246;2024-02-14T02:35:08;7.10;99.90
68051;DHT22;54839;51.364;7.246;2024-02-14T02:37:35;7.00;99.90
68051;DHT22;54839;51.364;7.246;2024-02-14T02:40:01;7.00;99.90
68051;DHT22;54839;51.364;7.246;2024-02-14T02:42:27;7.00;99.90
68051;DHT22;54839;51.364;7.246;2024-02-14T02:44:54;7.10;99.90
68051;DHT22;54839;51.364;7.246;2024-02-14T02:47:20;7.20;99.90
68051;DHT22;54839;51.364;7.246;2024-02-14T02:49:46;7.30;99.90
68051;DHT22;54839;51.364;7.246;2024-02-14T02:52:12;7.30;99.90
68051;DHT22;54839;51.364;7.246;2024-02-14T02:54:38;7.30;99.90
68051;DHT22;54839;51.364;7.246;2024-02-14T02:57:09;7.40;99.90
68051;DHT22;54839;51.364;7.246;2024-02-14T02:59:36;7.30;99.90
68051;DHT22;54839;51.364;7.246;2024-02-14T03:02:02;7.30;99.90
68051;DHT22;54839;51.364;7.246;2024-02-14T03:04:28;7.40;99.90
68051;DHT22;54839;51.364;7.246;2024-02-14T03:06:55;7.40;99.90
68051;DHT22;54839;51.364;7.246;2024-02-14T03:09:21;7.40;99.90
68051;DHT22;54839;51.364;7.246;2024-02-14T03:11:47;7.50;99.90
68051;DHT22;54839;51.364;7.246;2024-02-14T03:14:13;7.40;99.90
68051;DHT22;54839;51.364;7.246;2024-02-14T03:16:39;7.40;99.90
68051;DHT22;54839;51.364;7.246;2024-02-14T03:19:05;7.40;99.90
68051;DHT22;54839;51.364;7.246;2024-02-14T03:21:31;7.40;99.90
68051;DHT22;54839;51.364;7.246;2024-02-14T03:24:02;7.40;99.90
68051;DHT22;54839;51.364;7.246;2024-02-14T03:26:30;7.40;99.90
68051;DHT22;54839;51.364;7.246;2024-02-14T03:28:59;7.40;99.90
68051;DHT22;54839;51.364;7.246;2024-02-14T03:31:25;7.40;99.90
68051;DHT22;54839;51.364;7.246;2024-02-14T03:33:51;7.40;99.90
68051;DHT22;54839;51.364;7.246;2024-02-14T03:36:17;7.30;99.90
68051;DHT22;54839;51.364;7.246;2024-02-14T03:38:43;7.30;99.90
68051;DHT22;54839;51.364;7.246;2024-02-14T03:41:11;7.30;99.90
68051;DHT22;54839;51.364;7.246;2024-02-14T03:43:38;7.40;99.90
68051;DHT22;54839;51.364;7.246;2024-02-14T03:46:04;7.30;99.90
68051;DHT22;54839;51.364;7.246;2024-02-14T03:48:30;7.40;99.90
68051;DHT22;54839;51.364;7.246;2024-02-14T03:50:56;7.30;99.90
68051;DHT22;54839;51.364;7.246;2024-02-14T03:53:23;7.30;99.90
68051;DHT22;54839;51.364;7.246;2024-02-14T03:55:48;7.40;99.90
68051;DHT22;54839;51.364;7.246;2024-02-14T03:58:15;7.20;99.90
68051;DHT22;54839;51.364;7.246;2024-02-14T04:00:42;7.30;99.90
68051;DHT22;54839;51.364;7.246;2024-02-14T04:03:12;7.20;99.90
68051;DHT22;54839;51.364;7.246;2024-02-14T04:05:38;7.30;99.90
68051;DHT22;54839;51.364;7.246;2024-02-14T04:08:04;7.20;99.90
68051;DHT22;54839;51.364;7.246;2024-02-14T04:10:29;7.30;99.90
68051;DHT22;54839;51.364;7.246;2024-02-14T04:12:55;7.30;99.90
68051;DHT22;54839;51.364;7.246;2024-02-14T04:15:21;7.30;99.90
68051;DHT22;54839;51.364;7.246;2024-02-14T04:17:46;7.30;99.90
68051;DHT22;54839;51.364;7.246;2024-02-14T04:20:12;7.30;99.90
68051;DHT22;54839;51.364;7.246;2024-02-14T04:22:38;7.30;99.90
68051;DHT22;54839;51.364;7.246;2024-02-14T04:25:04;7.30;99.90
68051;DHT22;54839;51.364;7.246;2024-02-14T04:27:29;7.30;99.90
68051;DHT22;54839;51.364;7.246;2024-02-14T04:29:55;7.40;99.90
68051;DHT22;54839;51.364;7.246;2024-02-14T04:32:21;7.50;99.90
68051;DHT22;54839;51.364;7.246;2024-02-14T04:34:46;7.50;99.90
68051;DHT22;54839;51.364;7.246;2024-02-14T04:37:12;7.40;99.90
68051;DHT22;54839;51.364;7.246;2024-02-14T04:39:41;7.50;99.90
68051;DHT22;54839;51.364;7.246;2024-02-14T04:42:07;7.60;99.90
68051;DHT22;54839;51.364;7.246;2024-02-14T04:44:33;7.70;99.90
68051;DHT22;54839;51.364;7.246;2024-02-14T04:47:00;7.70;99.90
68051;DHT22;54839;51.364;7.246;2024-02-14T04:49:26;7.70;99.90
68051;DHT22;54839;51.364;7.246;2024-02-14T04:51:52;7.90;99.90
68051;DHT22;54839;51.364;7.246;2024-02-14T04:54:18;7.80;99.90
68051;DHT22;54839;51.364;7.246;2024-02-14T04:56:44;7.90;99.90
68051;DHT22;54839;51.364;7.246;2024-02-14T04:59:11;7.80;99.90
68051;DHT22;54839;51.364;7.246;2024-02-14T05:01:36;7.70;99.90
68051;DHT22;54839;51.364;7.246;2024-02-14T05:04:02;7.70;99.90
68051;DHT22;54839;51.364;7.246;2024-02-14T05:06:28;7.80;99.90
68051;DHT22;54839;51.364;7.246;2024-02-14T05:08:54;7.80;99.90
68051;DHT22;54839;51.364;7.246;2024-02-14T05:11:19;7.80;99.90
68051;DHT22;54839;51.364;7.246;2024-02-14T05:13:45;7.80;99.90
68051;DHT22;54839;51.364;7.246;2024-02-14T05:16:12;7.80;99.90
68051;DHT22;54839;51.364;7.246;2024-02-14T05:18:38;7.80;99.90
68051;DHT22;54839;51.364;7.246;2024-02-14T05:21:07;7.90;99.90
68051;DHT22;54839;51.364;7.246;2024-02-14T05:23:34;8.00;99.90
68051;DHT22;54839;51.364;7.246;2024-02-14T05:26:00;8.00;99.90
68051;DHT22;54839;51.364;7.246;2024-02-14T05:28:28;8.10;99.90
68051;DHT22;54839;51.364;7.246;2024-02-14T05:30:54;8.00;99.90
68051;DHT22;54839;51.364;7.246;2024-02-14T05:33:20;8.10;99.90
68051;DHT22;54839;51.364;7.246;2024-02-14T05:35:48;8.00;99.90
68051;DHT22;54839;51.364;7.246;2024-02-14T05:38:14;8.00;99.90
68051;DHT22;54839;51.364;7.246;2024-02-14T05:40:40;8.00;99.90
68051;DHT22;54839;51.364;7.246;2024-02-14T05:43:06;8.00;99.90
68051;DHT22;54839;51.364;7.246;2024-02-14T05:45:33;8.00;99.90
68051;DHT22;54839;51.364;7.246;2024-02-14T05:47:58;7.90;99.90
68051;DHT22;54839;51.364;7.246;2024-02-14T05:50:24;7.90;99.90
68051;DHT22;54839;51.364;7.246;2024-02-14T05:52:49;7.90;99.90
68051;DHT22;54839;51.364;7.246;2024-02-14T05:55:15;7.90;99.90
68051;DHT22;54839;51.364;7.246;2024-02-14T05:57:41;7.80;99.90
68051;DHT22;54839;51.364;7.246;2024-02-14T06:00:07;7.90;99.90
68051;DHT22;54839;51.364;7.246;2024-02-14T06:02:35;7.90;99.90
68051;DHT22;54839;51.364;7.246;2024-02-14T06:05:00;7.90;99.90
68051;DHT22;54839;51.364;7.246;2024-02-14T06:07:26;7.90;99.90
68051;DHT22;54839;51.364;7.246;2024-02-14T06:09:52;8.00;99.90
68051;DHT22;54839;51.364;7.246;2024-02-14T06:12:17;8.00;99.90
68051;DHT22;54839;51.364;7.246;2024-02-14T06:14:43;8.00;99.90
68051;DHT22;54839;51.364;7.246;2024-02-14T06:17:08;8.10;99.90
68051;DHT22;54839;51.364;7.246;2024-02-14T06:19:34;8.10;99.90
68051;DHT22;54839;51.364;7.246;2024-02-14T06:22:00;8.00;99.90
68051;DHT22;54839;51.364;7.246;2024-02-14T06:24:26;8.00;99.90
68051;DHT22;54839;51.364;7.246;2024-02-14T06:26:51;8.00;99.90
68051;DHT22;54839;51.364;7.246;2024-02-14T06:29:17;8.00;99.90
68051;DHT22;54839;51.364;7.246;2024-02-14T06:31:43;7.90;99.90
68051;DHT22;54839;51.364;7.246;2024-02-14T06:34:08;8.00;99.90
68051;DHT22;54839;51.364;7.246;2024-02-14T06:36:34;8.10;99.90
68051;DHT22;54839;51.364;7.246;2024-02-14T06:38:59;7.90;99.90
68051;DHT22;54839;51.364;7.246;2024-02-14T06:41:25;8.00;99.90
68051;DHT22;54839;51.364;7.246;2024-02-14T06:43:51;8.00;99.90
68051;DHT22;54839;51.364;7.246;2024-02-14T06:46:16;8.10;99.90
68051;DHT22;54839;51.364;7.246;2024-02-14T06:48:42;8.10;99.90
68051;DHT22;54839;51.364;7.246;2024-02-14T06:51:08;8.10;99.90
68051;DHT22;54839;51.364;7.246;2024-02-14T06:53:33;8.10;99.90
68051;DHT22;54839;51.364;7.246;2024-02-14T06:55:59;8.10;99.90
68051;DHT22;54839;51.364;7.246;2024-02-14T06:58:25;8.00;99.90
68051;DHT22;54839;51.364;7.246;2024-02-14T07:00:51;8.10;99.90
68051;DHT22;54839;51.364;7.246;2024-02-14T07:03:16;8.10;99.90
68051;DHT22;54839;51.364;7.246;2024-02-14T07:05:42;8.10;99.90
68051;DHT22;54839;51.364;7.246;2024-02-14T07:08:08;8.10;99.90
68051;DHT22;54839;51.364;7.246;2024-02-14T07:10:33;8.20;99.90
68051;DHT22;54839;51.364;7.246;2024-02-14T07:12:59;8.20;99.90
68051;DHT22;54839;51.364;7.246;2024-02-14T07:15:24;8.10;99.90
68051;DHT22;54839;51.364;7.246;2024-02-14T07:17:56;8.20;99.90
68051;DHT22;54839;51.364;7.246;2024-02-14T07:20:23;8.30;99.90
68051;DHT22;54839;51.364;7.246;2024-02-14T07:22:51;8.20;99.90
68051;DHT22;54839;51.364;7.246;2024-02-14T07:25:19;8.30;99.90
68051;DHT22;54839;51.364;7.246;2024-02-14T07:27:45;8.30;99.90
68051;DHT22;54839;51.364;7.246;2024-02-14T07:30:12;8.30;99.90
68051;DHT22;54839;51.364;7.246;2024-02-14T07:32:38;8.30;99.90
68051;DHT22;54839;51.364;7.246;2024-02-14T07:35:04;8.40;99.90
68051;DHT22;54839;51.364;7.246;2024-02-14T07:37:30;8.30;99.90
68051;DHT22;54839;51.364;7.246;2024-02-14T07:39:56;8.40;99.90
68051;DHT22;54839;51.364;7.246;2024-02-14T07:42:21;8.50;99.90
68051;DHT22;54839;51.364;7.246;2024-02-14T07:44:47;8.40;99.90
68051;DHT22;54839;51.364;7.246;2024-02-14T07:47:13;8.30;99.90
68051;DHT22;54839;51.364;7.246;2024-02-14T07:49:39;8.40;99.90
68051;DHT22;54839;51.364;7.246;2024-02-14T07:52:05;8.50;99.90
68051;DHT22;54839;51.364;7.246;2024-02-14T07:54:31;8.50;99.90
68051;DHT22;54839;51.364;7.246;2024-02-14T07:56:56;8.50;99.90
68051;DHT22;54839;51.364;7.246;2024-02-14T07:59:22;8.40;99.90
68051;DHT22;54839;51.364;7.246;2024-02-14T08:01:48;8.40;99.90
68051;DHT22;54839;51.364;7.246;2024-02-14T08:04:13;8.50;99.90
68051;DHT22;54839;51.364;7.246;2024-02-14T08:06:39;8.50;99.90
68051;DHT22;54839;51.364;7.246;2024-02-14T08:09:04;8.50;99.90
68051;DHT22;54839;51.364;7.246;2024-02-14T08:11:35;8.60;99.90
68051;DHT22;54839;51.364;7.246;2024-02-14T08:14:01;8.60;99.90
68051;DHT22;54839;51.364;7.246;2024-02-14T08:16:26;8.80;99.90
68051;DHT22;54839;51.364;7.246;2024-02-14T08:18:52;8.70;99.90
68051;DHT22;54839;51.364;7.246;2024-02-14T08:21:27;8.70;99.90
68051;DHT22;54839;51.364;7.246;2024-02-14T08:23:55;8.70;99.90
68051;DHT22;54839;51.364;7.246;2024-02-14T08:26:21;8.80;99.90
68051;DHT22;54839;51.364;7.246;2024-02-14T08:28:51;8.70;99.90
68051;DHT22;54839;51.364;7.246;2024-02-14T08:31:16;8.70;99.90
68051;DHT22;54839;51.364;7.246;2024-02-14T08:33:42;8.90;99.90
68051;DHT22;54839;51.364;7.246;2024-02-14T08:36:08;8.90;99.90
68051;DHT22;54839;51.364;7.246;2024-02-14T08:38:34;9.00;99.90
68051;DHT22;54839;51.364;7.246;2024-02-14T08:41:03;9.00;99.90
68051;DHT22;54839;51.364;7.246;2024-02-14T08:43:29;9.10;99.90
68051;DHT22;54839;51.364;7.246;2024-02-14T08:45:56;9.20;99.90
68051;DHT22;54839;51.364;7.246;2024-02-14T08:48:22;9.20;99.90
68051;DHT22;54839;51.364;7.246;2024-02-14T08:50:48;9.40;99.90
68051;DHT22;54839;51.364;7.246;2024-02-14T08:53:13;9.60;99.90
68051;DHT22;54839;51.364;7.246;2024-02-14T08:55:42;9.70;99.90
68051;DHT22;54839;51.364;7.246;2024-02-14T08:58:09;9.90;99.90
68051;DHT22;54839;51.364;7.246;2024-02-14T09:00:38;9.80;99.90
68051;DHT22;54839;51.364;7.246;2024-02-14T09:03:04;9.60;99.90
68051;DHT22;54839;51.364;7.246;2024-02-14T09:05:30;9.60;99.90
68051;DHT22;54839;51.364;7.246;2024-02-14T09:07:56;9.70;99.90
68051;DHT22;54839;51.364;7.246;2024-02-14T09:10:22;9.60;99.90
68051;DHT22;54839;51.364;7.246;2024-02-14T09:12:48;9.50;99.90
68051;DHT22;54839;51.364;7.246;2024-02-14T09:15:14;9.50;99.90
68051;DHT22;54839;51.364;7.246;2024-02-14T09:17:39;9.50;99.90
68051;DHT22;54839;51.364;7.246;2024-02-14T09:20:07;9.60;99.90
68051;DHT22;54839;51.364;7.246;2024-02-14T09:22:38;9.60;99.90
68051;DHT22;54839;51.364;7.246;2024-02-14T09:25:07;9.70;99.90
68051;DHT22;54839;51.364;7.246;2024-02-14T09:27:34;9.80;99.90
68051;DHT22;54839;51.364;7.246;2024-02-14T09:30:01;9.80;99.90
68051;DHT22;54839;51.364;7.246;2024-02-14T09:32:29;9.80;99.90
68051;DHT22;54839;51.364;7.246;2024-02-14T09:34:55;9.70;99.90
68051;DHT22;54839;51.364;7.246;2024-02-14T09:37:20;9.70;99.90
68051;DHT22;54839;51.364;7.246;2024-02-14T09:39:46;9.80;99.90
68051;DHT22;54839;51.364;7.246;2024-02-14T09:42:13;9.80;99.90
68051;DHT22;54839;51.364;7.246;2024-02-14T09:44:41;9.70;99.90
68051;DHT22;54839;51.364;7.246;2024-02-14T09:47:09;9.60;99.90
68051;DHT22;54839;51.364;7.246;2024-02-14T09:49:36;9.60;99.90
68051;DHT22;54839;51.364;7.246;2024-02-14T09:52:05;9.80;99.90
68051;DHT22;54839;51.364;7.246;2024-02-14T09:54:32;9.80;99.90
68051;DHT22;54839;51.364;7.246;2024-02-14T09:57:02;9.70;99.90
68051;DHT22;54839;51.364;7.246;2024-02-14T09:59:29;9.70;99.90
68051;DHT22;54839;51.364;7.246;2024-02-14T10:01:54;9.70;99.90
68051;DHT22;54839;51.364;7.246;2024-02-14T10:04:21;9.70;99.90
68051;DHT22;54839;51.364;7.246;2024-02-14T10:06:48;9.80;99.90
68051;DHT22;54839;51.364;7.246;2024-02-14T10:09:21;9.90;99.90
68051;DHT22;54839;51.364;7.246;2024-02-14T10:11:48;9.80;99.90
68051;DHT22;54839;51.364;7.246;2024-02-14T10:14:13;9.90;99.90
68051;DHT22;54839;51.364;7.246;2024-02-14T10:16:39;9.90;99.90
68051;DHT22;54839;51.364;7.246;2024-02-14T10:19:05;9.90;99.90
68051;DHT22;54839;51.364;7.246;2024-02-14T10:21:33;9.90;99.90
68051;DHT22;54839;51.364;7.246;2024-02-14T10:24:01;9.70;99.90
68051;DHT22;54839;51.364;7.246;2024-02-14T10:26:28;9.80;99.90
68051;DHT22;54839;51.364;7.246;2024-02-14T10:28:56;9.90;99.90
68051;DHT22;54839;51.364;7.246;2024-02-14T10:31:25;10.00;99.90
68051;DHT22;54839;51.364;7.246;2024-02-14T10:33:52;10.30;99.90
68051;DHT22;54839;51.364;7.246;2024-02-14T10:36:19;10.30;99.90
68051;DHT22;54839;51.364;7.246;2024-02-14T10:38:46;10.30;99.90
68051;DHT22;54839;51.364;7.246;2024-02-14T10:41:16;10.20;99.90
68051;DHT22;54839;51.364;7.246;2024-02-14T10:43:42;10.20;99.90
68051;DHT22;54839;51.364;7.246;2024-02-14T10:46:20;10.10;99.90
68051;DHT22;54839;51.364;7.246;2024-02-14T10:48:47;10.10;99.90
68051;DHT22;54839;51.364;7.246;2024-02-14T10:51:15;10.30;99.90
68051;DHT22;54839;51.364;7.246;2024-02-14T10:53:44;10.50;99.90
68051;DHT22;54839;51.364;7.246;2024-02-14T10:56:17;10.70;99.90
68051;DHT22;54839;51.364;7.246;2024-02-14T10:58:46;10.60;99.90
68051;DHT22;54839;51.364;7.246;2024-02-14T11:01:14;10.60;99.90
68051;DHT22;54839;51.364;7.246;2024-02-14T11:03:42;10.50;99.90
68051;DHT22;54839;51.364;7.246;2024-02-14T11:06:08;10.30;99.90
68051;DHT22;54839;51.364;7.246;2024-02-14T11:08:33;10.60;99.90
68051;DHT22;54839;51.364;7.246;2024-02-14T11:11:00;10.80;99.90
68051;DHT22;54839;51.364;7.246;2024-02-14T11:13:28;10.90;99.90
68051;DHT22;54839;51.364;7.246;2024-02-14T11:15:57;11.20;99.90
68051;DHT22;54839;51.364;7.246;2024-02-14T11:18:29;11.10;99.90
68051;DHT22;54839;51.364;7.246;2024-02-14T11:20:58;11.00;99.90
68051;DHT22;54839;51.364;7.246;2024-02-14T11:23:24;11.00;99.90
68051;DHT22;54839;51.364;7.246;2024-02-14T11:25:50;11.20;99.90
68051;DHT22;54839;51.364;7.246;2024-02-14T11:28:23;11.00;99.90
68051;DHT22;54839;51.364;7.246;2024-02-14T11:30:51;10.80;99.90
68051;DHT22;54839;51.364;7.246;2024-02-14T11:33:20;10.70;99.90
68051;DHT22;54839;51.364;7.246;2024-02-14T11:35:47;10.70;99.90
68051;DHT22;54839;51.364;7.246;2024-02-14T11:38:21;10.70;99.90
68051;DHT22;54839;51.364;7.246;2024-02-14T11:40:47;10.60;99.90
68051;DHT22;54839;51.364;7.246;2024-02-14T11:43:15;10.60;99.90
68051;DHT22;54839;51.364;7.246;2024-02-14T11:45:42;10.50;99.90
68051;DHT22;54839;51.364;7.246;2024-02-14T11:48:10;10.50;99.90
68051;DHT22;54839;51.364;7.246;2024-02-14T11:50:36;10.40;99.90
68051;DHT22;54839;51.364;7.246;2024-02-14T11:53:04;10.40;99.90
68051;DHT22;54839;51.364;7.246;2024-02-14T11:55:31;10.60;99.90
68051;DHT22;54839;51.364;7.246;2024-02-14T11:57:58;10.60;99.90
68051;DHT22;54839;51.364;7.246;2024-02-14T12:00:23;10.60;99.90
68051;DHT22;54839;51.364;7.246;2024-02-14T12:02:50;10.80;99.90
68051;DHT22;54839;51.364;7.246;2024-02-14T12:05:17;10.70;99.90
68051;DHT22;54839;51.364;7.246;2024-02-14T12:07:43;10.70;99.90
68051;DHT22;54839;51.364;7.246;2024-02-14T12:10:09;10.70;99.90
68051;DHT22;54839;51.364;7.246;2024-02-14T12:12:35;10.90;99.90
68051;DHT22;54839;51.364;7.246;2024-02-14T12:15:02;10.80;99.90
68051;DHT22;54839;51.364;7.246;2024-02-14T12:17:27;10.80;99.90
68051;DHT22;54839;51.364;7.246;2024-02-14T12:20:08;11.00;99.90
68051;DHT22;54839;51.364;7.246;2024-02-14T12:22:35;11.00;99.90
68051;DHT22;54839;51.364;7.246;2024-02-14T12:25:02;11.10;99.90
68051;DHT22;54839;51.364;7.246;2024-02-14T12:27:32;11.10;99.90
68051;DHT22;54839;51.364;7.246;2024-02-14T12:29:58;11.20;99.90
68051;DHT22;54839;51.364;7.246;2024-02-14T12:32:24;11.20;99.90
68051;DHT22;54839;51.364;7.246;2024-02-14T12:34:49;11.20;99.90
68051;DHT22;54839;51.364;7.246;2024-02-14T12:37:15;11.20;99.90
68051;DHT22;54839;51.364;7.246;2024-02-14T12:39:41;11.10;99.90
68051;DHT22;54839;51.364;7.246;2024-02-14T12:42:06;11.20;99.90
68051;DHT22;54839;51.364;7.246;2024-02-14T12:44:32;11.20;99.90
68051;DHT22;54839;51.364;7.246;2024-02-14T12:46:57;11.00;99.90
68051;DHT22;54839;51.364;7.246;2024-02-14T12:49:23;11.10;99.90
68051;DHT22;54839;51.364;7.246;2024-02-14T12:51:51;11.40;99.90
68051;DHT22;54839;51.364;7.246;2024-02-14T12:54:17;11.40;99.90
68051;DHT22;54839;51.364;7.246;2024-02-14T12:56:43;11.30;99.90
68051;DHT22;54839;51.364;7.246;2024-02-14T12:59:08;11.30;99.90
68051;DHT22;54839;51.364;7.246;2024-02-14T13:01:40;11.40;99.90
68051;DHT22;54839;51.364;7.246;2024-02-14T13:04:06;11.40;99.90
68051;DHT22;54839;51.364;7.246;2024-02-14T13:06:33;11.30;99.90
68051;DHT22;54839;51.364;7.246;2024-02-14T13:08:59;11.40;99.90
68051;DHT22;54839;51.364;7.246;2024-02-14T13:11:25;11.30;99.90
68051;DHT22;54839;51.364;7.246;2024-02-14T13:13:51;11.30;99.90
68051;DHT22;54839;51.364;7.246;2024-02-14T13:16:16;10.90;99.90
68051;DHT22;54839;51.364;7.246;2024-02-14T13:18:42;11.00;99.90
68051;DHT22;54839;51.364;7.246;2024-02-14T13:21:07;10.90;99.90
68051;DHT22;54839;51.364;7.246;2024-02-14T13:23:33;10.80;99.90
68051;DHT22;54839;51.364;7.246;2024-02-14T13:25:59;10.80;99.90
68051;DHT22;54839;51.364;7.246;2024-02-14T13:28:24;10.90;99.90
68051;DHT22;54839;51.364;7.246;2024-02-14T13:30:50;10.80;99.90
68051;DHT22;54839;51.364;7.246;2024-02-14T13:33:16;10.80;99.90
68051;DHT22;54839;51.364;7.246;2024-02-14T13:35:42;10.50;99.90
68051;DHT22;54839;51.364;7.246;2024-02-14T13:38:08;10.70;99.90
68051;DHT22;54839;51.364;7.246;2024-02-14T13:40:35;10.90;99.90
68051;DHT22;54839;51.364;7.246;2024-02-14T13:43:01;10.90;99.90
68051;DHT22;54839;51.364;7.246;2024-02-14T13:45:30;10.90;99.90
68051;DHT22;54839;51.364;7.246;2024-02-14T13:48:04;11.00;99.90
68051;DHT22;54839;51.364;7.246;2024-02-14T13:50:30;10.90;99.90
68051;DHT22;54839;51.364;7.246;2024-02-14T13:52:56;11.00;99.90
68051;DHT22;54839;51.364;7.246;2024-02-14T13:55:21;11.00;99.90
68051;DHT22;54839;51.364;7.246;2024-02-14T13:57:47;11.00;99.90
68051;DHT22;54839;51.364;7.246;2024-02-14T14:00:13;11.10;99.90
68051;DHT22;54839;51.364;7.246;2024-02-14T14:02:38;11.30;99.90
68051;DHT22;54839;51.364;7.246;2024-02-14T14:05:08;11.30;99.90
68051;DHT22;54839;51.364;7.246;2024-02-14T14:07:35;11.40;99.90
68051;DHT22;54839;51.364;7.246;2024-02-14T14:10:05;11.30;99.90
68051;DHT22;54839;51.364;7.246;2024-02-14T14:12:31;11.30;99.90
68051;DHT22;54839;51.364;7.246;2024-02-14T14:14:57;11.30;99.90
68051;DHT22;54839;51.364;7.246;2024-02-14T14:17:23;11.20;99.90
68051;DHT22;54839;51.364;7.246;2024-02-14T14:19:48;11.20;99.90
68051;DHT22;54839;51.364;7.246;2024-02-14T14:22:14;11.20;99.90
68051;DHT22;54839;51.364;7.246;2024-02-14T14:24:41;11.20;99.90
68051;DHT22;54839;51.364;7.246;2024-02-14T14:27:07;11.30;99.90
68051;DHT22;54839;51.364;7.246;2024-02-14T14:29:39;11.20;99.90
68051;DHT22;54839;51.364;7.246;2024-02-14T14:32:07;11.30;99.90
68051;DHT22;54839;51.364;7.246;2024-02-14T14:34:32;11.30;99.90
68051;DHT22;54839;51.364;7.246;2024-02-14T14:36:58;11.30;99.90
68051;DHT22;54839;51.364;7.246;2024-02-14T14:39:24;11.30;99.90
68051;DHT22;54839;51.364;7.246;2024-02-14T14:41:49;11.20;99.90
68051;DHT22;54839;51.364;7.246;2024-02-14T14:44:16;11.20;99.90
68051;DHT22;54839;51.364;7.246;2024-02-14T14:46:42;11.10;99.90
68051;DHT22;54839;51.364;7.246;2024-02-14T14:49:11;11.00;99.90
68051;DHT22;54839;51.364;7.246;2024-02-14T14:51:37;11.00;99.90
68051;DHT22;54839;51.364;7.246;2024-02-14T14:54:04;11.00;99.90
68051;DHT22;54839;51.364;7.246;2024-02-14T14:56:30;10.90;99.90
68051;DHT22;54839;51.364;7.246;2024-02-14T14:58:56;10.80;99.90
68051;DHT22;54839;51.364;7.246;2024-02-14T15:01:25;10.80;99.90
68051;DHT22;54839;51.364;7.246;2024-02-14T15:03:50;10.70;99.90
68051;DHT22;54839;51.364;7.246;2024-02-14T15:06:18;10.80;99.90
68051;DHT22;54839;51.364;7.246;2024-02-14T15:08:44;10.70;99.90
68051;DHT22;54839;51.364;7.246;2024-02-14T15:11:11;10.70;99.90
68051;DHT22;54839;51.364;7.246;2024-02-14T15:13:40;10.70;99.90
68051;DHT22;54839;51.364;7.246;2024-02-14T15:16:06;10.70;99.90
68051;DHT22;54839;51.364;7.246;2024-02-14T15:18:34;10.60;99.90
68051;DHT22;54839;51.364;7.246;2024-02-14T15:20:59;10.50;99.90
68051;DHT22;54839;51.364;7.246;2024-02-14T15:23:25;10.60;99.90
68051;DHT22;54839;51.364;7.246;2024-02-14T15:25:51;10.60;99.90
68051;DHT22;54839;51.364;7.246;2024-02-14T15:28:16;10.60;99.90
68051;DHT22;54839;51.364;7.246;2024-02-14T15:30:51;10.60;99.90
68051;DHT22;54839;51.364;7.246;2024-02-14T15:33:35;10.60;99.90
68051;DHT22;54839;51.364;7.246;2024-02-14T15:36:01;10.60;99.90